createdAt,value
2018-07-16T00:00:55.523Z,66.30
2018-07-16T00:01:55.512Z,66.41
2018-07-16T00:02:55.500Z,66.41
2018-07-16T00:03:55.511Z,66.50
2018-07-16T00:04:55.490Z,66.24
2018-07-16T00:05:55.468Z,66.24
2018-07-16T00:06:55.454Z,66.64
2018-07-16T00:07:55.444Z,66.64
2018-07-16T00:08:55.542Z,66.71
2018-07-16T00:09:55.420Z,66.61
2018-07-16T00:10:55.464Z,66.94
2018-07-16T00:11:55.423Z,66.74
2018-07-16T00:12:55.392Z,66.84
2018-07-16T00:13:55.403Z,67.14
2018-07-16T00:14:55.368Z,67.25
2018-07-16T00:15:55.361Z,67.14
2018-07-16T00:16:55.351Z,67.35
2018-07-16T00:17:55.332Z,67.55
2018-07-16T00:18:55.328Z,67.55
2018-07-16T00:19:55.345Z,67.58
2018-07-16T00:20:55.307Z,67.45
2018-07-16T00:21:55.318Z,67.48
2018-07-16T00:22:55.301Z,67.45
2018-07-16T00:23:55.276Z,67.55
2018-07-16T00:24:55.285Z,67.55
2018-07-16T00:25:55.251Z,67.35
2018-07-16T00:26:55.238Z,67.25
2018-07-16T00:27:55.229Z,67.58
2018-07-16T00:28:55.217Z,67.35
2018-07-16T00:29:55.262Z,67.48
2018-07-16T00:30:55.201Z,67.58
2018-07-16T00:31:55.182Z,67.65
2018-07-16T00:32:55.184Z,67.55
2018-07-16T00:33:55.174Z,67.35
2018-07-16T00:34:55.173Z,67.45
2018-07-16T00:35:55.172Z,67.35
2018-07-16T00:36:55.144Z,67.45
2018-07-16T00:37:55.137Z,67.55
2018-07-16T00:38:55.106Z,67.68
2018-07-16T00:39:55.099Z,67.35
2018-07-16T00:40:55.126Z,67.48
2018-07-16T00:41:55.071Z,67.68
2018-07-16T00:42:55.062Z,67.89
2018-07-16T00:43:55.048Z,67.89
2018-07-16T00:44:55.042Z,67.99
2018-07-16T00:45:55.068Z,68.09
2018-07-16T00:46:55.018Z,67.99
2018-07-16T00:47:55.010Z,68.09
2018-07-16T00:48:54.998Z,67.99
2018-07-16T00:49:54.984Z,68.19
2018-07-16T00:50:55.043Z,68.09
2018-07-16T00:51:54.969Z,68.19
2018-07-16T00:52:54.949Z,67.99
2018-07-16T00:53:54.941Z,68.19
2018-07-16T00:54:54.930Z,67.99
2018-07-16T00:55:54.917Z,67.99
2018-07-16T00:56:54.933Z,68.23
2018-07-16T00:57:54.901Z,68.19
2018-07-16T00:58:54.885Z,68.02
2018-07-16T00:59:54.876Z,68.32
2018-07-16T01:00:54.861Z,68.40
2018-07-16T01:01:54.875Z,68.73
2018-07-16T01:02:54.840Z,69.03
2018-07-16T01:03:54.833Z,68.93
2018-07-16T01:04:54.820Z,68.73
2018-07-16T01:05:54.808Z,68.83
2018-07-16T01:06:54.825Z,68.73
2018-07-16T01:07:54.787Z,68.52
2018-07-16T01:08:54.775Z,68.43
2018-07-16T01:09:54.771Z,68.70
2018-07-16T01:10:54.750Z,68.83
2018-07-16T01:11:54.764Z,68.52
2018-07-16T01:12:54.730Z,68.63
2018-07-16T01:13:54.719Z,68.43
2018-07-16T01:14:54.709Z,68.52
2018-07-16T01:15:54.717Z,68.83
2018-07-16T01:16:54.718Z,68.93
2018-07-16T01:17:54.675Z,68.52
2018-07-16T01:18:54.672Z,68.73
2018-07-16T01:19:54.661Z,68.83
2018-07-16T01:20:54.645Z,69.03
2018-07-16T01:21:54.661Z,68.83
2018-07-16T01:22:54.630Z,68.52
2018-07-16T01:23:54.615Z,68.93
2018-07-16T01:24:54.603Z,68.73
2018-07-16T01:25:54.589Z,68.93
2018-07-16T01:26:54.611Z,69.13
2018-07-16T01:27:54.565Z,68.52
2018-07-16T01:28:54.567Z,68.73
2018-07-16T01:29:54.544Z,68.83
2018-07-16T01:30:54.533Z,69.13
2018-07-16T01:31:54.548Z,69.13
2018-07-16T01:32:54.513Z,68.93
2018-07-16T01:33:54.502Z,68.63
2018-07-16T01:34:54.498Z,69.07
2018-07-16T01:35:54.479Z,69.07
2018-07-16T01:36:54.492Z,68.83
2018-07-16T01:37:54.456Z,68.96
2018-07-16T01:38:54.453Z,69.07
2018-07-16T01:39:54.433Z,68.66
2018-07-16T01:40:54.423Z,68.96
2018-07-16T01:41:54.471Z,68.96
2018-07-16T01:42:54.403Z,69.44
2018-07-16T01:43:54.391Z,69.47
2018-07-16T01:44:54.378Z,69.47
2018-07-16T01:45:54.371Z,69.07
2018-07-16T01:46:54.360Z,69.37
2018-07-16T01:47:54.385Z,69.10
2018-07-16T01:48:54.345Z,69.30
2018-07-16T01:49:54.328Z,69.60
2018-07-16T01:50:54.318Z,69.57
2018-07-16T01:51:54.303Z,69.78
2018-07-16T01:52:54.319Z,69.68
2018-07-16T01:53:54.290Z,69.51
2018-07-16T01:54:54.291Z,69.17
2018-07-16T01:55:54.264Z,69.27
2018-07-16T01:56:54.252Z,69.71
2018-07-16T01:57:54.295Z,69.68
2018-07-16T01:58:54.231Z,70.28
2018-07-16T01:59:54.217Z,69.98
2018-07-16T02:00:54.213Z,69.91
2018-07-16T02:01:54.198Z,70.08
2018-07-16T02:02:54.181Z,69.91
2018-07-16T02:03:54.202Z,69.91
2018-07-16T02:04:54.164Z,70.21
2018-07-16T02:05:54.173Z,69.81
2018-07-16T02:06:54.137Z,69.81
2018-07-16T02:07:54.128Z,69.91
2018-07-16T02:08:54.162Z,70.32
2018-07-16T02:09:54.104Z,70.32
2018-07-16T02:10:54.094Z,71.44
2018-07-16T02:11:54.086Z,71.44
2018-07-16T02:12:54.077Z,70.72
2018-07-16T02:13:54.090Z,71.33
2018-07-16T02:14:54.069Z,70.52
2018-07-16T02:15:54.039Z,71.03
2018-07-16T02:16:54.032Z,70.42
2018-07-16T02:17:54.022Z,71.13
2018-07-16T02:18:54.031Z,70.62
2018-07-16T02:19:53.997Z,70.52
2018-07-16T02:20:53.987Z,70.62
2018-07-16T02:21:53.988Z,70.21
2018-07-16T02:22:53.965Z,70.62
2018-07-16T02:23:53.976Z,70.42
2018-07-16T02:24:53.949Z,70.62
2018-07-16T02:25:53.937Z,70.62
2018-07-16T02:26:53.924Z,70.52
2018-07-16T02:27:53.910Z,70.52
2018-07-16T02:28:53.942Z,70.42
2018-07-16T02:29:53.893Z,70.45
2018-07-16T02:30:53.909Z,70.42
2018-07-16T02:31:53.866Z,70.45
2018-07-16T02:32:53.859Z,70.35
2018-07-16T02:33:53.843Z,70.45
2018-07-16T02:34:53.857Z,70.55
2018-07-16T02:35:53.824Z,70.42
2018-07-16T02:36:53.814Z,70.52
2018-07-16T02:37:53.820Z,70.35
2018-07-16T02:38:53.794Z,70.21
2018-07-16T02:39:53.808Z,70.25
2018-07-16T02:40:53.770Z,70.21
2018-07-16T02:41:53.756Z,70.55
2018-07-16T02:42:53.745Z,70.35
2018-07-16T02:43:53.733Z,70.42
2018-07-16T02:44:53.762Z,70.32
2018-07-16T02:45:53.711Z,70.55
2018-07-16T02:46:53.706Z,70.52
2018-07-16T02:47:53.692Z,70.83
2018-07-16T02:48:53.682Z,70.52
2018-07-16T02:49:53.706Z,71.47
2018-07-16T02:50:53.676Z,71.47
2018-07-16T02:51:53.652Z,72.08
2018-07-16T02:52:53.637Z,72.17
2018-07-16T02:53:53.626Z,71.67
2018-07-16T02:54:53.623Z,71.47
2018-07-16T02:55:53.631Z,71.26
2018-07-16T02:56:53.606Z,71.47
2018-07-16T02:57:53.583Z,71.77
2018-07-16T02:58:53.574Z,71.47
2018-07-16T02:59:53.568Z,71.36
2018-07-16T03:00:53.571Z,71.53
2018-07-16T03:01:53.537Z,72.14
2018-07-16T03:02:53.527Z,72.04
2018-07-16T03:03:53.519Z,71.64
2018-07-16T03:04:53.520Z,72.04
2018-07-16T03:05:53.523Z,71.67
2018-07-16T03:06:53.485Z,71.88
2018-07-16T03:07:53.469Z,71.77
2018-07-16T03:08:53.469Z,71.88
2018-07-16T03:09:53.454Z,72.04
2018-07-16T03:10:53.465Z,71.36
2018-07-16T03:11:53.441Z,71.26
2018-07-16T03:12:53.423Z,71.67
2018-07-16T03:13:53.411Z,71.67
2018-07-16T03:14:53.395Z,71.67
2018-07-16T03:15:53.415Z,71.33
2018-07-16T03:16:53.375Z,70.76
2018-07-16T03:17:53.410Z,70.65
2018-07-16T03:18:53.352Z,70.45
2018-07-16T03:19:53.339Z,70.55
2018-07-16T03:20:53.360Z,70.55
2018-07-16T03:21:53.317Z,70.35
2018-07-16T03:22:53.315Z,70.55
2018-07-16T03:23:53.296Z,70.52
2018-07-16T03:24:53.290Z,70.35
2018-07-16T03:25:53.298Z,70.52
2018-07-16T03:26:53.263Z,70.83
2018-07-16T03:27:53.253Z,70.83
2018-07-16T03:28:53.241Z,70.83
2018-07-16T03:29:53.242Z,70.72
2018-07-16T03:30:53.242Z,70.21
2018-07-16T03:31:53.209Z,70.62
2018-07-16T03:32:53.197Z,70.72
2018-07-16T03:33:53.183Z,70.62
2018-07-16T03:34:53.176Z,70.42
2018-07-16T03:35:53.200Z,70.32
2018-07-16T03:36:53.154Z,70.83
2018-07-16T03:37:53.141Z,71.44
2018-07-16T03:38:53.133Z,71.64
2018-07-16T03:39:53.124Z,71.44
2018-07-16T03:40:53.109Z,71.73
2018-07-16T03:41:53.136Z,71.73
2018-07-16T03:42:53.087Z,71.73
2018-07-16T03:43:53.074Z,71.53
2018-07-16T03:44:53.063Z,71.73
2018-07-16T03:45:53.052Z,71.44
2018-07-16T03:46:53.072Z,71.33
2018-07-16T03:47:53.067Z,71.44
2018-07-16T03:48:53.020Z,71.13
2018-07-16T03:49:53.012Z,71.20
2018-07-16T03:50:53.000Z,71.60
2018-07-16T03:51:53.020Z,71.80
2018-07-16T03:52:52.979Z,71.70
2018-07-16T03:53:52.968Z,71.91
2018-07-16T03:54:52.985Z,72.21
2018-07-16T03:55:52.975Z,72.61
2018-07-16T03:56:52.933Z,72.61
2018-07-16T03:57:52.945Z,72.11
2018-07-16T03:58:52.910Z,72.21
2018-07-16T03:59:52.897Z,72.41
2018-07-16T04:00:52.914Z,72.52
2018-07-16T04:01:52.879Z,72.11
2018-07-16T04:02:52.893Z,72.21
2018-07-16T04:03:52.853Z,72.72
2018-07-16T04:04:52.849Z,72.82
2018-07-16T04:05:52.837Z,72.31
2018-07-16T04:06:52.868Z,72.72
2018-07-16T04:07:52.844Z,72.48
2018-07-16T04:08:52.804Z,72.08
2018-07-16T04:09:52.803Z,72.17
2018-07-16T04:10:52.779Z,72.08
2018-07-16T04:11:52.772Z,72.17
2018-07-16T04:12:52.801Z,71.97
2018-07-16T04:13:52.754Z,72.08
2018-07-16T04:14:52.737Z,72.48
2018-07-16T04:15:52.726Z,72.28
2018-07-16T04:16:52.713Z,72.24
2018-07-16T04:17:52.865Z,71.73
2018-07-16T04:18:52.690Z,72.24
2018-07-16T04:19:52.693Z,71.73
2018-07-16T04:20:52.671Z,72.28
2018-07-16T04:21:52.659Z,72.04
2018-07-16T04:22:52.679Z,72.04
2018-07-16T04:23:52.636Z,72.85
2018-07-16T04:24:52.626Z,72.34
2018-07-16T04:25:52.622Z,72.75
2018-07-16T04:26:52.635Z,72.45
2018-07-16T04:27:52.593Z,73.66
2018-07-16T04:28:52.613Z,72.72
2018-07-16T04:29:52.580Z,72.61
2018-07-16T04:30:52.572Z,72.81
2018-07-16T04:31:52.551Z,72.41
2018-07-16T04:32:52.537Z,72.31
2018-07-16T04:33:52.565Z,72.41
2018-07-16T04:34:52.529Z,72.08
2018-07-16T04:35:52.513Z,72.38
2018-07-16T04:36:52.494Z,72.58
2018-07-16T04:37:52.494Z,72.68
2018-07-16T04:38:52.498Z,73.39
2018-07-16T04:39:52.509Z,72.68
2018-07-16T04:40:52.450Z,73.19
2018-07-16T04:41:52.440Z,73.36
2018-07-16T04:42:52.443Z,73.15
2018-07-16T04:43:52.418Z,73.25
2018-07-16T04:44:52.430Z,72.85
2018-07-16T04:45:52.395Z,73.56
2018-07-16T04:46:52.384Z,72.92
2018-07-16T04:47:52.375Z,73.22
2018-07-16T04:48:52.390Z,73.43
2018-07-16T04:49:52.406Z,73.52
2018-07-16T04:50:52.349Z,73.79
2018-07-16T04:51:52.333Z,73.90
2018-07-16T04:52:52.323Z,75.04
2018-07-16T04:53:52.306Z,74.80
2018-07-16T04:54:52.345Z,74.60
2018-07-16T04:55:52.293Z,74.70
2018-07-16T04:56:52.275Z,73.75
2018-07-16T04:57:52.265Z,74.37
2018-07-16T04:58:52.250Z,73.75
2018-07-16T04:59:52.269Z,73.86
2018-07-16T05:00:52.234Z,73.05
2018-07-16T05:01:52.223Z,73.02
2018-07-16T05:02:52.212Z,73.02
2018-07-16T05:03:52.199Z,73.02
2018-07-16T05:04:52.225Z,73.08
2018-07-16T05:05:52.175Z,72.98
2018-07-16T05:06:52.163Z,72.88
2018-07-16T05:07:52.166Z,73.05
2018-07-16T05:08:52.146Z,72.85
2018-07-16T05:09:52.127Z,72.95
2018-07-16T05:10:52.147Z,73.15
2018-07-16T05:11:52.108Z,72.71
2018-07-16T05:12:52.098Z,72.95
2018-07-16T05:13:52.096Z,73.15
2018-07-16T05:14:52.077Z,72.78
2018-07-16T05:15:52.094Z,73.22
2018-07-16T05:16:52.053Z,72.88
2018-07-16T05:17:52.045Z,72.78
2018-07-16T05:18:52.034Z,72.85
2018-07-16T05:19:52.041Z,72.54
2018-07-16T05:20:52.040Z,72.51
2018-07-16T05:21:51.999Z,71.91
2018-07-16T05:22:51.988Z,71.26
2018-07-16T05:23:51.977Z,70.83
2018-07-16T05:24:51.967Z,70.59
2018-07-16T05:25:52.011Z,69.56
2018-07-16T05:26:51.969Z,69.82
2018-07-16T05:27:51.934Z,68.59
2018-07-16T05:28:51.922Z,67.61
2018-07-16T05:29:51.911Z,66.45
2018-07-16T05:30:51.899Z,64.28
2018-07-16T05:31:52.197Z,63.12
2018-07-16T05:32:51.878Z,61.76
2018-07-16T05:33:51.877Z,60.00
2018-07-16T05:34:51.856Z,58.65
2018-07-16T05:35:51.846Z,58.12
2018-07-16T05:36:51.859Z,57.57
2018-07-16T05:37:51.821Z,55.55
2018-07-16T05:38:51.813Z,55.60
2018-07-16T05:39:51.808Z,54.58
2018-07-16T05:40:51.793Z,53.56
2018-07-16T05:41:51.826Z,52.04
2018-07-16T05:42:51.780Z,52.51
2018-07-16T05:43:51.763Z,50.90
2018-07-16T05:44:51.750Z,51.67
2018-07-16T05:45:51.739Z,50.65
2018-07-16T05:46:51.748Z,50.53
2018-07-16T05:47:51.715Z,51.00
2018-07-16T05:48:51.724Z,49.81
2018-07-16T05:49:51.693Z,48.11
2018-07-16T05:50:51.687Z,48.38
2018-07-16T05:51:51.721Z,47.19
2018-07-16T05:52:51.658Z,47.29
2018-07-16T05:53:51.648Z,47.56
2018-07-16T05:54:51.647Z,46.88
2018-07-16T05:55:51.645Z,46.85
2018-07-16T05:56:51.614Z,46.85
2018-07-16T05:57:51.627Z,47.34
2018-07-16T05:58:51.597Z,48.14
2018-07-16T05:59:51.588Z,48.14
2018-07-16T06:00:51.576Z,47.27
2018-07-16T06:01:51.567Z,48.06
2018-07-16T06:02:51.599Z,47.59
2018-07-16T06:03:51.547Z,47.61
2018-07-16T06:04:51.534Z,48.03
2018-07-16T06:05:51.522Z,46.84
2018-07-16T06:06:51.515Z,47.75
2018-07-16T06:07:51.512Z,47.46
2018-07-16T06:08:51.613Z,48.18
2018-07-16T06:09:51.478Z,47.88
2018-07-16T06:10:51.476Z,47.90
2018-07-16T06:11:51.455Z,47.98
2018-07-16T06:12:51.453Z,48.00
2018-07-16T06:13:51.489Z,47.61
2018-07-16T06:14:51.428Z,48.02
2018-07-16T06:18:12.758Z,49.74
2018-07-16T06:19:12.755Z,49.54
2018-07-16T06:20:12.720Z,49.84
2018-07-16T06:21:12.709Z,50.13
2018-07-16T06:22:12.698Z,50.33
2018-07-16T06:23:12.687Z,50.31
2018-07-16T06:24:12.702Z,49.71
2018-07-16T06:25:12.669Z,48.13
2018-07-16T06:26:12.666Z,47.38
2018-07-16T06:27:12.647Z,47.06
2018-07-16T06:28:12.644Z,45.85
2018-07-16T06:29:12.659Z,45.49
2018-07-16T06:30:12.612Z,43.15
2018-07-16T06:31:12.599Z,41.02
2018-07-16T06:32:12.585Z,40.27
2018-07-16T06:33:12.602Z,39.92
2018-07-16T06:34:12.594Z,39.17
2018-07-16T06:35:12.557Z,37.05
2018-07-16T06:36:12.548Z,36.25
2018-07-16T06:37:12.534Z,36.53
2018-07-16T06:38:12.524Z,36.92
2018-07-16T06:39:12.548Z,36.24
2018-07-16T06:40:12.631Z,36.27
2018-07-16T06:41:12.908Z,35.97
2018-07-16T06:42:12.513Z,36.29
2018-07-16T06:43:12.473Z,37.27
2018-07-16T06:44:12.481Z,37.07
2018-07-16T06:45:12.453Z,36.47
2018-07-16T06:46:12.446Z,35.99
2018-07-16T06:47:12.428Z,36.91
2018-07-16T06:48:12.414Z,36.52
2018-07-16T06:49:12.429Z,36.99
2018-07-16T06:50:12.395Z,36.78
2018-07-16T06:51:12.392Z,36.06
2018-07-16T06:52:12.386Z,36.16
2018-07-16T06:53:12.364Z,35.78
2018-07-16T06:54:12.351Z,36.51
2018-07-16T06:55:12.479Z,37.15
2018-07-16T06:56:12.339Z,39.15
2018-07-16T06:57:12.320Z,39.48
2018-07-16T06:58:12.326Z,41.30
2018-07-16T06:59:12.299Z,40.82
2018-07-16T07:00:12.295Z,41.55
2018-07-16T07:01:12.300Z,41.77
2018-07-16T07:02:12.300Z,42.38
2018-07-16T07:03:12.259Z,43.88
2018-07-16T07:04:12.268Z,43.91
2018-07-16T07:05:12.235Z,43.24
2018-07-16T07:06:12.255Z,43.65
2018-07-16T07:07:12.211Z,43.65
2018-07-16T07:08:12.203Z,43.97
2018-07-16T07:09:12.190Z,44.07
2018-07-16T07:10:12.240Z,44.56
2018-07-16T07:11:12.218Z,43.77
2018-07-16T07:12:12.178Z,44.59
2018-07-16T07:13:12.149Z,44.39
2018-07-16T07:14:12.147Z,45.48
2018-07-16T07:15:12.150Z,45.00
2018-07-16T07:16:12.140Z,45.20
2018-07-16T07:17:12.108Z,45.48
2018-07-16T07:18:12.137Z,45.16
2018-07-16T07:19:12.082Z,45.16
2018-07-16T07:20:12.086Z,44.96
2018-07-16T07:21:12.086Z,45.56
2018-07-16T07:22:12.071Z,44.86
2018-07-16T07:23:12.044Z,45.78
2018-07-16T07:24:12.030Z,46.00
2018-07-16T07:25:12.024Z,45.90
2018-07-16T07:26:12.054Z,46.51
2018-07-16T07:27:11.996Z,47.01
2018-07-16T07:28:11.984Z,45.52
2018-07-16T07:29:12.016Z,45.72
2018-07-16T07:30:11.973Z,46.91
2018-07-16T07:31:11.960Z,46.83
2018-07-16T07:32:11.983Z,46.42
2018-07-16T07:33:11.942Z,45.42
2018-07-16T07:34:11.920Z,46.31
2018-07-16T07:35:11.997Z,46.51
2018-07-16T07:36:11.902Z,45.92
2018-07-16T07:37:11.911Z,45.64
2018-07-16T07:38:11.894Z,46.14
2018-07-16T07:39:11.879Z,46.34
2018-07-16T07:40:11.865Z,45.52
2018-07-16T07:41:11.842Z,44.45
2018-07-16T07:42:11.838Z,42.92
2018-07-16T07:43:11.864Z,42.90
2018-07-16T07:44:11.824Z,43.10
2018-07-16T07:45:11.796Z,43.31
2018-07-16T07:46:11.786Z,43.31
2018-07-16T07:47:11.777Z,43.21
2018-07-16T07:48:11.790Z,43.04
2018-07-16T07:49:11.760Z,43.43
2018-07-16T07:50:11.753Z,43.24
2018-07-16T07:51:11.744Z,43.93
2018-07-16T07:52:11.733Z,44.23
2018-07-16T07:53:11.741Z,43.43
2018-07-16T07:54:11.889Z,43.51
2018-07-16T07:55:11.952Z,42.60
2018-07-16T07:56:11.685Z,41.57
2018-07-16T07:57:11.677Z,41.65
2018-07-16T07:58:11.684Z,41.41
2018-07-16T07:59:11.673Z,40.51
2018-07-16T08:00:11.638Z,40.09
2018-07-16T08:01:11.631Z,39.68
2018-07-16T08:02:11.630Z,39.74
2018-07-16T08:03:11.681Z,37.95
2018-07-16T08:04:11.600Z,37.46
2018-07-16T08:05:11.590Z,37.77
2018-07-16T08:06:11.575Z,39.26
2018-07-16T08:07:11.566Z,39.09
2018-07-16T08:08:11.615Z,38.81
2018-07-16T08:09:11.541Z,39.23
2018-07-16T08:10:11.531Z,38.93
2018-07-16T08:11:11.524Z,39.23
2018-07-16T08:12:11.511Z,39.12
2018-07-16T08:13:11.545Z,37.87
2018-07-16T08:14:11.491Z,37.87
2018-07-16T08:15:11.479Z,37.74
2018-07-16T08:16:11.492Z,36.90
2018-07-16T08:17:11.458Z,36.67
2018-07-16T08:18:11.445Z,36.38
2018-07-16T08:19:11.462Z,36.59
2018-07-16T08:20:11.443Z,36.88
2018-07-16T08:21:11.411Z,37.28
2018-07-16T08:22:11.408Z,37.67
2018-07-16T08:23:11.397Z,37.10
2018-07-16T08:24:11.426Z,38.40
2018-07-16T08:25:11.368Z,38.81
2018-07-16T08:26:11.354Z,38.71
2018-07-16T08:27:11.360Z,38.93
2018-07-16T08:28:11.351Z,38.64
2018-07-16T08:29:11.359Z,39.52
2018-07-16T08:30:11.319Z,39.94
2018-07-16T08:31:11.311Z,38.85
2018-07-16T08:32:11.302Z,39.15
2018-07-16T08:33:11.295Z,39.06
2018-07-16T08:34:11.302Z,39.48
2018-07-16T08:35:11.263Z,39.30
2018-07-16T08:36:11.251Z,39.32
2018-07-16T08:37:11.249Z,39.12
2018-07-16T08:38:11.229Z,39.83
2018-07-16T08:39:11.254Z,40.84
2018-07-16T08:40:11.247Z,41.33
2018-07-16T08:41:11.208Z,41.36
2018-07-16T08:42:11.183Z,42.05
2018-07-16T08:43:11.193Z,42.54
2018-07-16T08:44:11.190Z,41.08
2018-07-16T08:45:11.153Z,40.78
2018-07-16T08:46:11.189Z,40.47
2018-07-16T08:47:11.169Z,40.98
2018-07-16T08:48:11.120Z,41.08
2018-07-16T08:49:11.133Z,41.47
2018-07-16T08:50:11.113Z,41.28
2018-07-16T08:51:11.089Z,39.40
2018-07-16T08:52:11.074Z,39.69
2018-07-16T08:53:11.065Z,40.78
2018-07-16T08:54:11.080Z,41.69
2018-07-16T08:55:11.046Z,41.39
2018-07-16T08:56:11.054Z,41.60
2018-07-16T08:57:11.025Z,41.81
2018-07-16T08:58:11.015Z,43.00
2018-07-16T08:59:11.051Z,42.41
2018-07-16T09:00:10.992Z,41.31
2018-07-16T09:01:10.995Z,41.04
2018-07-16T09:02:10.967Z,41.44
2018-07-16T09:03:10.956Z,42.13
2018-07-16T09:04:11.062Z,42.15
2018-07-16T09:05:10.988Z,42.25
2018-07-16T09:06:10.952Z,42.65
2018-07-16T09:07:11.045Z,43.04
2018-07-16T09:08:10.912Z,43.04
2018-07-16T09:09:10.892Z,43.04
2018-07-16T09:10:10.905Z,43.06
2018-07-16T09:11:10.907Z,43.16
2018-07-16T09:12:10.869Z,44.13
2018-07-16T09:13:10.901Z,43.93
2018-07-16T09:14:10.847Z,43.04
2018-07-16T09:15:10.850Z,42.85
2018-07-16T09:16:10.826Z,43.52
2018-07-16T09:17:10.810Z,43.32
2018-07-16T09:18:10.799Z,42.03
2018-07-16T09:19:10.864Z,42.52
2018-07-16T09:20:10.799Z,41.14
2018-07-16T09:21:10.760Z,41.33
2018-07-16T09:22:10.753Z,40.94
2018-07-16T09:23:10.743Z,42.72
2018-07-16T09:24:10.742Z,43.00
2018-07-16T09:25:10.740Z,43.20
2018-07-16T09:26:10.707Z,42.01
2018-07-16T09:27:10.699Z,42.01
2018-07-16T09:28:10.686Z,41.02
2018-07-16T09:29:10.675Z,40.82
2018-07-16T09:30:10.695Z,41.10
2018-07-16T09:31:10.665Z,39.51
2018-07-16T09:32:10.642Z,39.71
2018-07-16T09:33:10.653Z,39.91
2018-07-16T09:34:10.623Z,38.92
2018-07-16T09:35:10.650Z,39.81
2018-07-16T09:36:10.601Z,40.60
2018-07-16T09:37:10.593Z,40.31
2018-07-16T09:38:10.578Z,40.58
2018-07-16T09:39:10.737Z,39.59
2018-07-16T09:40:10.560Z,40.41
2018-07-16T09:41:10.568Z,39.40
2018-07-16T09:42:10.544Z,40.09
2018-07-16T09:43:10.524Z,39.50
2018-07-16T09:44:10.513Z,41.38
2018-07-16T09:45:10.501Z,41.08
2018-07-16T09:46:10.517Z,40.68
2018-07-16T09:47:10.539Z,39.37
2018-07-16T09:48:10.471Z,39.37
2018-07-16T09:49:10.459Z,40.09
2018-07-16T09:50:10.450Z,39.77
2018-07-16T09:51:10.458Z,39.08
2018-07-16T09:52:10.442Z,39.37
2018-07-16T09:53:10.420Z,39.36
2018-07-16T09:54:10.407Z,39.36
2018-07-16T09:55:10.395Z,38.76
2018-07-16T09:56:10.464Z,39.56
2018-07-16T09:57:10.380Z,39.16
2018-07-16T09:58:10.362Z,38.06
2018-07-16T09:59:10.356Z,38.25
2018-07-16T10:00:10.342Z,38.15
2018-07-16T10:01:10.364Z,37.24
2018-07-16T10:02:10.318Z,37.05
2018-07-16T10:03:10.315Z,36.46
2018-07-16T10:04:10.308Z,36.55
2018-07-16T10:05:10.295Z,36.65
2018-07-16T10:06:10.330Z,36.06
2018-07-16T10:07:10.273Z,36.44
2018-07-16T10:08:10.263Z,36.44
2018-07-16T10:09:10.263Z,35.94
2018-07-16T10:10:10.240Z,36.54
2018-07-16T10:11:10.225Z,36.14
2018-07-16T10:12:10.238Z,35.73
2018-07-16T10:13:10.200Z,35.91
2018-07-16T10:14:10.216Z,35.41
2018-07-16T10:15:10.180Z,35.41
2018-07-16T10:16:10.173Z,36.09
2018-07-16T10:17:10.217Z,35.99
2018-07-16T10:18:10.149Z,36.38
2018-07-16T10:19:10.147Z,35.08
2018-07-16T10:20:10.197Z,35.27
2018-07-16T10:21:10.120Z,36.05
2018-07-16T10:22:10.130Z,35.27
2018-07-16T10:23:10.110Z,35.35
2018-07-16T10:24:10.080Z,35.44
2018-07-16T10:25:10.072Z,34.44
2018-07-16T10:26:10.133Z,33.54
2018-07-16T10:27:10.073Z,33.54
2018-07-16T10:28:10.040Z,33.74
2018-07-16T10:29:10.055Z,33.13
2018-07-16T10:30:10.019Z,32.34
2018-07-16T10:31:10.017Z,33.82
2018-07-16T10:32:09.999Z,33.31
2018-07-16T10:33:10.008Z,33.80
2018-07-16T10:34:09.982Z,33.39
2018-07-16T10:35:09.969Z,33.59
2018-07-16T10:36:09.955Z,32.31
2018-07-16T10:37:09.950Z,32.21
2018-07-16T10:38:09.971Z,32.51
2018-07-16T10:39:09.937Z,32.41
2018-07-16T10:40:09.926Z,32.89
2018-07-16T10:41:09.901Z,32.50
2018-07-16T10:42:09.900Z,32.69
2018-07-16T10:43:09.909Z,32.59
2018-07-16T10:44:09.874Z,32.59
2018-07-16T10:45:09.878Z,32.40
2018-07-16T10:46:09.846Z,32.20
2018-07-16T10:47:09.836Z,32.50
2018-07-16T10:48:09.853Z,34.06
2018-07-16T10:49:09.814Z,32.10
2018-07-16T10:50:09.800Z,33.36
2018-07-16T10:51:09.799Z,32.18
2018-07-16T10:52:09.782Z,32.78
2018-07-16T10:53:09.802Z,31.89
2018-07-16T10:54:09.759Z,33.25
2018-07-16T10:55:09.813Z,33.05
2018-07-16T10:56:09.740Z,30.99
2018-07-16T10:57:09.726Z,32.66
2018-07-16T10:58:09.739Z,31.68
2018-07-16T10:59:09.710Z,32.37
2018-07-16T11:00:09.698Z,31.79
2018-07-16T11:01:09.680Z,32.28
2018-07-16T11:02:09.683Z,31.89
2018-07-16T11:03:09.687Z,31.01
2018-07-16T11:04:09.672Z,31.79
2018-07-16T11:05:09.678Z,32.10
2018-07-16T11:06:09.625Z,30.71
2018-07-16T11:07:09.612Z,31.50
2018-07-16T11:08:09.603Z,31.79
2018-07-16T11:09:09.617Z,31.02
2018-07-16T11:10:09.582Z,31.32
2018-07-16T11:11:09.569Z,31.90
2018-07-16T11:12:09.564Z,30.82
2018-07-16T11:13:09.554Z,31.22
2018-07-16T11:14:09.567Z,31.01
2018-07-16T11:15:09.615Z,31.60
2018-07-16T11:16:09.519Z,31.01
2018-07-16T11:17:09.524Z,30.80
2018-07-16T11:18:09.494Z,30.40
2018-07-16T11:19:09.507Z,30.30
2018-07-16T11:20:09.471Z,30.68
2018-07-16T11:21:09.459Z,30.39
2018-07-16T11:22:09.449Z,30.10
2018-07-16T11:23:09.440Z,29.90
2018-07-16T11:24:09.530Z,30.37
2018-07-16T11:25:09.421Z,29.98
2018-07-16T11:26:09.410Z,28.61
2018-07-16T11:27:09.399Z,29.00
2018-07-16T11:28:09.389Z,29.87
2018-07-16T11:29:09.378Z,29.38
2018-07-16T11:30:09.498Z,29.97
2018-07-16T11:31:09.354Z,29.08
2018-07-16T11:32:09.352Z,29.18
2018-07-16T11:33:09.337Z,29.18
2018-07-16T11:34:09.333Z,29.38
2018-07-16T11:35:09.364Z,29.87
2018-07-16T11:36:09.302Z,29.00
2018-07-16T11:37:09.310Z,29.18
2018-07-16T11:38:09.281Z,28.51
2018-07-16T11:39:09.270Z,28.31
2018-07-16T11:40:09.293Z,28.50
2018-07-16T11:41:09.250Z,28.41
2018-07-16T11:42:09.243Z,27.84
2018-07-16T11:43:09.240Z,29.10
2018-07-16T11:44:09.214Z,29.30
2018-07-16T11:45:09.229Z,29.49
2018-07-16T11:46:09.287Z,29.69
2018-07-16T11:47:09.184Z,30.08
2018-07-16T11:48:09.174Z,29.00
2018-07-16T11:49:09.163Z,29.77
2018-07-16T11:50:09.152Z,29.98
2018-07-16T11:51:09.173Z,29.10
2018-07-16T11:52:09.139Z,27.73
2018-07-16T11:53:09.123Z,27.94
2018-07-16T11:54:09.112Z,28.53
2018-07-16T11:55:09.102Z,29.02
2018-07-16T11:56:09.116Z,28.82
2018-07-16T11:57:09.085Z,29.31
2018-07-16T11:58:09.070Z,29.80
2018-07-16T11:59:09.061Z,29.11
2018-07-16T12:00:09.056Z,29.31
2018-07-16T12:01:09.064Z,29.31
2018-07-16T12:02:09.030Z,29.41
2018-07-16T12:03:09.018Z,29.31
2018-07-16T12:04:09.007Z,29.11
2018-07-16T12:05:09.045Z,28.92
2018-07-16T12:06:09.010Z,28.72
2018-07-16T12:07:08.976Z,29.03
2018-07-16T12:08:08.968Z,28.92
2018-07-16T12:09:08.954Z,29.21
2018-07-16T12:10:08.945Z,29.31
2018-07-16T12:11:08.976Z,29.11
2018-07-16T12:12:08.972Z,29.02
2018-07-16T12:13:08.913Z,28.41
2018-07-16T12:14:08.903Z,28.13
2018-07-16T12:15:08.892Z,28.12
2018-07-16T12:16:08.894Z,28.22
2018-07-16T12:17:08.900Z,27.92
2018-07-16T12:18:08.990Z,27.83
2018-07-16T12:19:08.852Z,25.50
2018-07-16T12:20:24.023Z,22.45
2018-07-16T12:21:24.734Z,20.87
2018-07-16T12:22:23.762Z,17.61
2018-07-16T12:23:23.625Z,16.70
2018-07-16T12:24:23.482Z,15.41
2018-07-16T12:25:23.318Z,16.39
2018-07-16T12:26:23.144Z,15.59
2018-07-16T12:27:22.962Z,14.80
2018-07-16T12:28:22.730Z,15.05
2018-07-16T12:29:22.523Z,14.47
2018-07-16T12:30:22.323Z,14.36
2018-07-16T12:31:22.117Z,14.14
2018-07-16T12:32:21.939Z,14.54
2018-07-16T12:33:21.727Z,13.40
2018-07-16T12:34:21.538Z,13.57
2018-07-16T12:35:21.334Z,13.65
2018-07-16T12:36:21.135Z,14.11
2018-07-16T12:37:20.956Z,13.18
2018-07-16T12:38:20.764Z,14.64
2018-07-16T12:39:20.598Z,13.50
2018-07-16T12:40:20.436Z,13.39
2018-07-16T12:41:20.312Z,14.06
2018-07-16T12:42:20.125Z,14.26
2018-07-16T12:43:19.921Z,13.41
2018-07-16T12:44:19.729Z,14.36
2018-07-16T12:45:19.527Z,14.19
2018-07-16T12:46:19.309Z,13.48
2018-07-16T12:47:19.107Z,13.78
2018-07-16T12:48:18.888Z,15.62
2018-07-16T12:49:18.725Z,17.94
2018-07-16T12:50:18.585Z,18.87
2018-07-16T12:51:18.455Z,20.52
2018-07-16T12:52:18.368Z,20.32
2018-07-16T12:53:18.186Z,19.63
2018-07-16T12:54:18.051Z,19.63
2018-07-16T12:55:17.910Z,18.93